Overview Statistics Trail Chart Weather Telemetry Raw packets
 

This is the latest recevied weather packets stored in our database for station/object N5JXS. If no packets are shown the sender has not sent any weather packets the latest 10 day(s).

<< 78 79 80 81 82 83 84 >>
Time Temp. Humidity Pressure Rain* Wind** Luminosity Snow
1788056768 21.11° C 40% 1026.1 hPa 0 mm - 0 W/m² -
1788056464 21.67° C 40% 1025.7 hPa 0 mm - 0 W/m² -
1788056157 22.22° C 38% 1026 hPa 0 mm - 0 W/m² -
1788055852 22.22° C 37% 1025.7 hPa 0 mm - 0 W/m² -
1788055551 21.67° C 37% 1025.5 hPa 0 mm - 0 W/m² -
1788055247 21.11° C 39% 1025.6 hPa 0 mm - 0 W/m² -
1788054947 20.56° C 43% 1026 hPa 0 mm - 0 W/m² -
1788054643 21.11° C 42% 1025.8 hPa 0 mm - 0 W/m² -
1788054338 21.11° C 41% 1025.7 hPa 0 mm - 0 W/m² -
1788054034 21.67° C 40% 1025.7 hPa 0 mm - 0 W/m² -
1788053729 22.22° C 39% 1025.8 hPa 0 mm - 0 W/m² -
1788053425 22.22° C 37% 1025.5 hPa 0 mm - 0 W/m² -
1788053124 22.22° C 36% 1025.1 hPa 0 mm - 1 W/m² -
1788052821 22.78° C 35% 1025.3 hPa 0 mm - 4 W/m² -
1788052515 22.22° C 40% 1025.1 hPa 0 mm - 7 W/m² -
1788052211 22.22° C 40% 1025.3 hPa 0 mm - 8 W/m² -
1788051911 22.22° C 39% 1025.2 hPa 0 mm - 9 W/m² -
1788051606 22.22° C 40% 1025.2 hPa 0 mm - 10 W/m² -
1788051304 22.22° C 40% 1025.3 hPa 0 mm - 10 W/m² -
1788051003 22.78° C 39% 1025.3 hPa 0 mm - 12 W/m² -
1788050698 23.33° C 38% 1025.1 hPa 0 mm - 16 W/m² -
1788050397 23.33° C 37% 1025.2 hPa 0 mm - 18 W/m² -
1788050092 23.89° C 38% 1024.8 hPa 0 mm - 19 W/m² -
1788049790 23.89° C 37% 1025 hPa 0 mm - 35 W/m² -
1788049485 23.89° C 37% 1024.6 hPa 0 mm - 32 W/m² -

* Rain latest hour (hover to see other rain measurements)
** Current wind speed in m/s (hover to see current wind gust speed)